ESS Endeavor — WDE8980 — position and weather

sailwx.info

Track history (hours):
 
Tides and Currents Weather Stations Pressure Air Temp Water Temp Dewpoint Dewpoint Depression Visibility Wind Speed Wind Dir Waves Ship Positions

ESS Endeavor

Owner: F/V OCEAN VIEW INC, MANAHAWKIN, NJ. More information available from US FCC via Universal Licensing System and Coast Guard Vessel Documentation Center.

Last reported at 2018-May-25 04:51 UTC. Time now 2018-Jun-18 01:23 UTC.
Position N 39°23' W 074°26'.
Warning: this ship's position is 23 days out of date.

Length 31 m.

Type: Fishing. MMSI: 367411920.

Date/timePositionNaut miles runAvg speedWind from/ knotsBaromVisibWave heightAir tempDewpointWater temp
2018-May-25 04:51N 39°23' W 074°26'3 5.8
2018-May-25 04:23N 39°21' W 074°22'5 9.1
2018-May-25 03:47N 39°25' W 074°17'3 9.0
2018-May-25 03:30N 39°26' W 074°14'5 9.0
2018-May-25 03:00N 39°29' W 074°09'5 9.2
2018-May-25 02:30N 39°31' W 074°04'5 9.3
2018-May-25 01:59N 39°34' W 073°59'5 9.0
2018-May-25 01:28N 39°37' W 073°55'4 9.1
2018-May-25 00:59N 39°40' W 073°50'  
2018-May-22 12:44N 39°22' W 074°26'0 0.0
2018-May-22 11:59N 39°22' W 074°26'0 0.0
2018-May-22 11:29N 39°22' W 074°26'0 0.0
2018-May-22 10:50N 39°22' W 074°26'0 0.0
2018-May-22 10:26N 39°22' W 074°26'0 0.0
2018-May-22 09:59N 39°22' W 074°26'0 0.0
2018-May-22 09:29N 39°22' W 074°26'0 0.0
2018-May-22 08:59N 39°22' W 074°26'0 0.0
2018-May-22 06:47N 39°22' W 074°26'0 0.0
2018-May-22 06:11N 39°22' W 074°26'0 0.0
2018-May-22 05:59N 39°22' W 074°26'1 1.4
2018-May-22 05:30N 39°23' W 074°25'4 7.1
2018-May-22 04:55N 39°22' W 074°20'4 9.5
2018-May-22 04:30N 39°25' W 074°15'5 9.7
2018-May-22 04:00N 39°27' W 074°10'6 9.7
2018-May-22 03:22N 39°31' W 074°04'  
Track history (hours):
 
Tides and Currents Weather Stations Pressure Air Temp Water Temp Dewpoint Dewpoint Depression Visibility Wind Speed Wind Dir Waves Ship Positions

ESS Endeavor

Owner: F/V OCEAN VIEW INC, MANAHAWKIN, NJ. More information available from US FCC via Universal Licensing System and Coast Guard Vessel Documentation Center.

Last reported at 2018-May-25 04:51 UTC. Time now 2018-Jun-18 01:23 UTC.
Position N 39°23' W 074°26'.
Warning: this ship's position is 23 days out of date.

Length 31 m.

Type: Fishing. MMSI: 367411920.

Date/timePositionNaut miles runAvg speedWind from/ knotsBaromVisibWave heightAir tempDewpointWater temp
2018-May-25 04:51N 39°23' W 074°26'3 5.8
2018-May-25 04:23N 39°21' W 074°22'5 9.1
2018-May-25 03:47N 39°25' W 074°17'3 9.0
2018-May-25 03:30N 39°26' W 074°14'5 9.0
2018-May-25 03:00N 39°29' W 074°09'5 9.2
2018-May-25 02:30N 39°31' W 074°04'5 9.3
2018-May-25 01:59N 39°34' W 073°59'5 9.0
2018-May-25 01:28N 39°37' W 073°55'4 9.1
2018-May-25 00:59N 39°40' W 073°50'  
2018-May-22 12:44N 39°22' W 074°26'0 0.0
2018-May-22 11:59N 39°22' W 074°26'0 0.0
2018-May-22 11:29N 39°22' W 074°26'0 0.0
2018-May-22 10:50N 39°22' W 074°26'0 0.0
2018-May-22 10:26N 39°22' W 074°26'0 0.0
2018-May-22 09:59N 39°22' W 074°26'0 0.0
2018-May-22 09:29N 39°22' W 074°26'0 0.0
2018-May-22 08:59N 39°22' W 074°26'0 0.0
2018-May-22 06:47N 39°22' W 074°26'0 0.0
2018-May-22 06:11N 39°22' W 074°26'0 0.0
2018-May-22 05:59N 39°22' W 074°26'1 1.4
2018-May-22 05:30N 39°23' W 074°25'4 7.1
2018-May-22 04:55N 39°22' W 074°20'4 9.5
2018-May-22 04:30N 39°25' W 074°15'5 9.7
2018-May-22 04:00N 39°27' W 074°10'6 9.7
2018-May-22 03:22N 39°31' W 074°04'  

Dump ship's entire track history